Time;durP1;ratioP1;P1;durP2;ratioP2;P2;SDS_P1;SDS_P2;PMS_P1;PMS_P2;Temp;Humidity;BMP_temperature;BMP_pressure;BME280_temperature;BME280_humidity;BME280_pressure;Samples;Min_cycle;Max_cycle;Signal;HPM_P1;HPM_P2
2022/05/02 00:00:48;;;;;;;2.45;2.10;;;15.10;61.10;;;;;;5079477;28;20128;-74
2022/05/02 00:03:15;;;;;;;2.67;2.38;;;15.10;61.10;;;;;;5087889;28;20039;-74
2022/05/02 00:06:00;;;;;;;3.03;2.20;;;15.10;61.10;;;;;;5081483;28;20084;-73
2022/05/02 00:08:31;;;;;;;2.50;2.30;;;15.10;61.10;;;;;;5095727;28;20110;-73
2022/05/02 00:11:00;;;;;;;2.83;2.13;;;15.10;61.10;;;;;;5084230;28;20071;-73
2022/05/02 00:13:31;;;;;;;2.70;2.30;;;15.10;61.10;;;;;;5080554;28;20149;-73
2022/05/02 00:15:58;;;;;;;2.40;2.20;;;15.10;61.10;;;;;;5091228;27;20040;-73
2022/05/02 00:18:38;;;;;;;2.70;2.35;;;15.10;61.10;;;;;;5083411;28;20068;-72
2022/05/02 00:21:04;;;;;;;3.63;2.50;;;15.10;61.10;;;;;;5079971;28;20050;-73
2022/05/02 00:23:33;;;;;;;3.88;2.40;;;15.10;61.10;;;;;;5087585;28;20042;-73
2022/05/02 00:26:00;;;;;;;4.53;2.20;;;15.10;61.10;;;;;;5088053;28;20043;-73
2022/05/02 00:28:30;;;;;;;2.70;2.30;;;15.10;61.10;;;;;;5086103;28;20055;-73
2022/05/02 00:31:11;;;;;;;2.50;2.20;;;15.10;61.10;;;;;;5086353;28;20513;-73
2022/05/02 00:33:44;;;;;;;3.15;2.50;;;15.10;61.20;;;;;;5088476;28;20050;-74
2022/05/02 00:36:11;;;;;;;2.65;2.40;;;15.10;61.20;;;;;;5086660;28;20416;-74
2022/05/02 00:38:45;;;;;;;2.72;2.40;;;15.10;61.20;;;;;;5088022;28;20116;-74
2022/05/02 00:41:12;;;;;;;2.60;2.38;;;15.10;61.10;;;;;;5085505;28;20040;-73
2022/05/02 00:43:45;;;;;;;3.03;2.42;;;15.10;61.10;;;;;;5089542;28;20054;-73
2022/05/02 00:46:19;;;;;;;3.30;2.40;;;15.10;61.20;;;;;;5083488;28;20165;-73
2022/05/02 00:48:53;;;;;;;2.80;2.40;;;15.10;61.30;;;;;;5080369;28;20044;-73
2022/05/02 00:51:22;;;;;;;3.83;2.83;;;15.10;61.20;;;;;;5080258;28;20103;-73
2022/05/02 00:53:51;;;;;;;2.92;2.45;;;15.10;61.20;;;;;;5080125;28;20073;-73
2022/05/02 00:56:21;;;;;;;3.10;2.53;;;15.10;61.20;;;;;;5089124;28;20110;-74
2022/05/02 00:58:51;;;;;;;3.13;2.78;;;15.00;61.10;;;;;;5078397;28;20044;-73
2022/05/02 01:01:18;;;;;;;3.13;2.38;;;15.10;61.20;;;;;;5080950;28;20048;-74
2022/05/02 01:03:55;;;;;;;3.08;2.70;;;15.10;61.20;;;;;;5081369;28;20377;-73
2022/05/02 01:09:22;;;;;;;3.00;2.70;;;15.10;61.20;;;;;;5087164;28;20040;-73
2022/05/02 01:11:50;;;;;;;3.75;2.70;;;15.10;61.20;;;;;;5087317;28;20047;-73
2022/05/02 01:14:21;;;;;;;2.85;2.40;;;15.00;61.10;;;;;;5088856;28;20044;-73
2022/05/02 01:16:48;;;;;;;2.72;2.42;;;15.00;61.10;;;;;;5090981;28;20047;-73
2022/05/02 01:19:17;;;;;;;3.30;2.67;;;15.10;61.20;;;;;;5083675;28;20036;-72
2022/05/02 01:22:05;;;;;;;2.90;2.45;;;15.10;61.20;;;;;;5090530;27;20067;-72
2022/05/02 01:24:34;;;;;;;2.97;2.47;;;15.00;61.10;;;;;;5083831;27;20040;-73
2022/05/02 01:27:02;;;;;;;2.90;2.58;;;15.10;61.20;;;;;;5082604;28;20050;-73
2022/05/02 01:29:29;;;;;;;3.60;2.75;;;15.00;61.10;;;;;;5092526;28;20047;-73
2022/05/02 01:32:10;;;;;;;2.90;2.53;;;15.00;61.10;;;;;;5082366;28;20541;-73
2022/05/02 01:34:52;;;;;;;2.90;2.60;;;15.00;61.10;;;;;;5097909;28;20169;-73
2022/05/02 01:37:23;;;;;;;3.80;2.35;;;15.00;61.10;;;;;;5094150;28;20085;-73
2022/05/02 01:39:52;;;;;;;2.85;2.45;;;15.00;61.10;;;;;;5053511;27;20628;-73
2022/05/02 01:42:21;;;;;;;3.15;2.83;;;15.00;61.90;;;;;;5098531;27;20101;-73
2022/05/02 01:44:47;;;;;;;3.28;2.92;;;15.00;61.10;;;;;;5075245;27;20505;-73
2022/05/02 01:47:21;;;;;;;3.65;2.72;;;15.00;61.10;;;;;;5060640;28;20113;-73
2022/05/02 01:49:48;;;;;;;3.05;2.75;;;15.10;61.20;;;;;;5082509;27;20105;-73
2022/05/02 01:52:22;;;;;;;3.35;2.83;;;15.00;61.10;;;;;;5088822;28;20158;-73
2022/05/02 01:54:49;;;;;;;3.13;2.70;;;15.00;61.10;;;;;;5097997;27;20040;-73
2022/05/02 01:57:21;;;;;;;3.53;2.97;;;15.00;61.90;;;;;;5085525;28;20668;-74
2022/05/02 01:59:48;;;;;;;2.78;2.55;;;15.00;61.10;;;;;;5085459;27;20052;-73
2022/05/02 02:02:14;;;;;;;3.08;2.78;;;15.00;61.10;;;;;;5090836;28;20050;-73
2022/05/02 02:07:57;;;;;;;4.93;2.80;;;15.00;61.10;;;;;;5065275;27;20056;-74
2022/05/02 02:10:24;;;;;;;3.20;2.83;;;15.00;61.10;;;;;;5086182;28;20036;-73
2022/05/02 02:12:51;;;;;;;3.00;2.70;;;15.00;61.10;;;;;;5082805;28;20442;-74
2022/05/02 02:15:21;;;;;;;2.75;2.40;;;15.00;61.10;;;;;;5093632;28;20529;-73
2022/05/02 02:17:48;;;;;;;3.47;2.60;;;15.00;61.10;;;;;;5086518;28;20043;-74
2022/05/02 02:20:15;;;;;;;3.33;2.80;;;15.00;61.10;;;;;;5083704;28;20040;-73
2022/05/02 02:23:01;;;;;;;3.10;2.72;;;15.00;61.10;;;;;;5087785;27;20051;-72
2022/05/02 02:25:28;;;;;;;4.53;2.97;;;15.00;61.00;;;;;;5082387;28;20831;-73
2022/05/02 02:27:59;;;;;;;2.75;2.40;;;15.00;61.00;;;;;;5080370;28;20059;-74
2022/05/02 02:30:46;;;;;;;3.30;2.75;;;15.00;61.10;;;;;;5086547;27;20509;-73
2022/05/02 02:33:17;;;;;;;2.60;2.40;;;15.00;61.10;;;;;;5082971;27;20113;-73
2022/05/02 02:36:03;;;;;;;3.88;3.00;;;15.00;61.10;;;;;;5080599;28;20113;-75
2022/05/02 02:38:31;;;;;;;3.55;2.85;;;15.00;61.10;;;;;;5088109;28;20093;-73
2022/05/02 02:40:58;;;;;;;3.10;2.80;;;15.00;61.10;;;;;;5083805;27;20081;-74
2022/05/02 02:43:43;;;;;;;3.53;3.08;;;14.90;60.90;;;;;;5092265;27;20552;-74
2022/05/02 02:46:10;;;;;;;3.50;2.85;;;15.00;61.00;;;;;;5086610;28;20042;-73
2022/05/02 02:48:51;;;;;;;2.90;2.60;;;15.00;61.00;;;;;;5082190;28;20048;-73
2022/05/02 02:51:21;;;;;;;2.92;2.60;;;15.00;61.00;;;;;;5087596;28;20138;-75
2022/05/02 02:53:52;;;;;;;3.22;2.90;;;15.00;61.00;;;;;;5085493;28;20043;-74
2022/05/02 02:56:21;;;;;;;2.97;2.67;;;15.00;61.00;;;;;;5090915;28;20036;-75
2022/05/02 02:58:54;;;;;;;3.47;2.70;;;15.00;61.00;;;;;;5078933;28;20063;-75
2022/05/02 03:01:21;;;;;;;3.10;2.78;;;15.00;61.00;;;;;;5089627;28;20144;-75
2022/05/02 03:03:49;;;;;;;2.97;2.63;;;15.00;61.00;;;;;;5081157;27;20063;-74
2022/05/02 03:06:20;;;;;;;3.42;2.67;;;14.90;60.90;;;;;;5097559;28;20123;-74
2022/05/02 03:08:47;;;;;;;3.97;2.75;;;15.00;61.00;;;;;;5091043;28;20111;-74
2022/05/02 03:11:15;;;;;;;4.15;2.80;;;14.90;60.90;;;;;;5089207;28;20124;-74
2022/05/02 03:13:42;;;;;;;3.50;2.90;;;15.00;61.00;;;;;;5083220;28;20063;-74
2022/05/02 03:16:21;;;;;;;3.88;3.03;;;14.90;60.90;;;;;;5085803;28;20477;-74
2022/05/02 03:18:51;;;;;;;3.10;2.80;;;14.90;60.90;;;;;;5080267;27;20055;-75
2022/05/02 03:21:21;;;;;;;3.40;2.92;;;14.90;60.80;;;;;;5096441;28;20059;-74
2022/05/02 03:23:51;;;;;;;3.85;3.00;;;14.90;60.80;;;;;;5083254;28;20043;-74
2022/05/02 03:26:23;;;;;;;3.20;2.90;;;14.90;60.90;;;;;;5096746;27;20047;-76
2022/05/02 03:28:51;;;;;;;3.58;2.90;;;14.90;60.80;;;;;;5091536;27;20047;-75
2022/05/02 03:31:21;;;;;;;3.97;3.00;;;14.90;60.90;;;;;;5090459;28;20036;-73
2022/05/02 03:33:48;;;;;;;3.47;2.72;;;14.80;60.70;;;;;;5087305;28;20056;-74
2022/05/02 03:36:21;;;;;;;3.20;2.88;;;14.90;60.80;;;;;;5096788;28;20028;-74
2022/05/02 03:38:48;;;;;;;4.05;2.75;;;14.80;60.70;;;;;;5081058;28;20040;-74
2022/05/02 03:41:23;;;;;;;3.40;3.10;;;14.90;60.80;;;;;;5086392;28;20032;-74
2022/05/02 03:43:49;;;;;;;3.67;2.80;;;14.90;60.90;;;;;;5088218;28;20208;-75
2022/05/02 03:46:17;;;;;;;3.63;2.90;;;14.90;60.80;;;;;;5093115;28;20036;-74
2022/05/02 03:48:45;;;;;;;3.15;2.75;;;14.90;60.80;;;;;;5085573;28;20101;-73
2022/05/02 03:51:12;;;;;;;3.10;2.70;;;14.90;60.90;;;;;;5089628;28;20043;-75
2022/05/02 03:53:39;;;;;;;3.92;3.00;;;14.90;60.80;;;;;;5075519;28;20539;-75
2022/05/02 03:56:22;;;;;;;3.50;2.93;;;14.90;60.80;;;;;;5099011;27;20043;-74
2022/05/02 03:58:49;;;;;;;4.32;3.22;;;14.90;60.80;;;;;;5094562;27;20297;-74
2022/05/02 04:01:21;;;;;;;3.55;3.22;;;14.90;60.80;;;;;;5090775;28;20062;-74
2022/05/02 04:03:51;;;;;;;4.00;3.03;;;14.90;60.80;;;;;;5085621;28;20051;-74
2022/05/02 04:06:21;;;;;;;3.50;3.20;;;14.90;60.80;;;;;;5093837;28;20036;-74
2022/05/02 04:08:49;;;;;;;3.22;2.92;;;14.90;60.80;;;;;;5094064;28;20054;-74
2022/05/02 04:11:22;;;;;;;3.33;3.00;;;14.90;60.80;;;;;;5083994;28;20043;-74
2022/05/02 04:13:49;;;;;;;3.10;2.80;;;14.90;60.80;;;;;;5081867;28;20490;-74
2022/05/02 04:16:21;;;;;;;4.05;3.53;;;14.90;60.90;;;;;;5081303;28;20111;-75
2022/05/02 04:18:52;;;;;;;3.10;2.80;;;14.90;60.80;;;;;;5092994;27;20039;-73
2022/05/02 04:21:21;;;;;;;3.80;3.20;;;15.00;60.90;;;;;;5079944;28;20063;-74
2022/05/02 04:23:48;;;;;;;3.40;3.03;;;14.90;60.80;;;;;;5084698;28;20048;-74
2022/05/02 04:26:22;;;;;;;3.28;2.97;;;14.90;60.80;;;;;;5083189;28;20040;-75
2022/05/02 04:28:52;;;;;;;3.40;3.00;;;14.90;60.80;;;;;;5092523;28;20062;-74
2022/05/02 04:31:21;;;;;;;3.42;3.13;;;14.80;60.70;;;;;;5095889;28;20044;-74
2022/05/02 04:33:51;;;;;;;5.03;3.03;;;14.80;60.70;;;;;;5092288;28;20039;-73
2022/05/02 04:36:24;;;;;;;3.08;2.78;;;14.80;60.70;;;;;;5089292;28;20036;-74
2022/05/02 04:38:51;;;;;;;3.10;2.80;;;14.80;60.70;;;;;;5077573;28;20166;-75
2022/05/02 04:41:22;;;;;;;3.58;3.28;;;14.90;60.80;;;;;;5083446;28;20111;-74
2022/05/02 04:43:51;;;;;;;3.97;2.88;;;14.80;60.70;;;;;;5081283;28;20043;-74
2022/05/02 04:46:22;;;;;;;3.33;2.75;;;14.80;60.70;;;;;;5088175;28;20130;-74
2022/05/02 04:48:49;;;;;;;3.20;2.78;;;14.80;60.70;;;;;;5083455;28;20636;-74
2022/05/02 04:51:21;;;;;;;3.30;2.90;;;14.80;60.80;;;;;;5092473;28;20605;-74
2022/05/02 04:53:48;;;;;;;3.55;3.00;;;14.80;60.70;;;;;;5087497;28;20272;-75
2022/05/02 04:56:14;;;;;;;3.63;3.17;;;14.80;60.80;;;;;;5095078;28;20045;-74
2022/05/02 04:58:53;;;;;;;3.67;3.00;;;14.80;60.70;;;;;;5091857;28;20490;-75
2022/05/02 05:01:21;;;;;;;3.38;2.97;;;14.80;60.70;;;;;;5085819;28;20036;-74
2022/05/02 05:04:00;;;;;;;3.05;2.75;;;14.80;60.80;;;;;;5092034;28;20064;-74
2022/05/02 05:06:46;;;;;;;3.40;2.67;;;14.80;60.80;;;;;;5093809;27;20165;-75
2022/05/02 05:09:12;;;;;;;3.40;2.80;;;14.80;60.80;;;;;;5091874;28;20144;-74
2022/05/02 05:11:51;;;;;;;3.75;2.85;;;14.80;61.50;;;;;;5088280;28;20036;-73
2022/05/02 05:17:36;;;;;;;2.90;2.60;;;14.80;60.80;;;;;;5093360;27;20039;-74
2022/05/02 05:20:05;;;;;;;;;;;14.80;60.80;;;;;;5089547;27;20036;-73
2022/05/02 05:23:03;;;;;;;2.75;2.45;;;14.80;60.80;;;;;;5087270;28;19953;-74
2022/05/02 05:25:59;;;;;;;3.15;2.65;;;14.80;60.80;;;;;;5089505;27;20039;-73
2022/05/02 05:29:13;;;;;;;3.95;2.83;;;14.80;60.80;;;;;;5087412;28;20047;-75
2022/05/02 05:31:53;;;;;;;3.47;2.60;;;14.80;60.80;;;;;;5090586;28;20060;-73
2022/05/02 05:34:34;;;;;;;3.83;2.80;;;14.80;60.80;;;;;;5087057;28;20398;-73
2022/05/02 05:38:03;;;;;;;3.53;2.95;;;14.80;60.80;;;;;;5092418;28;20054;-73
2022/05/02 05:40:54;;;;;;;3.17;2.88;;;14.80;60.90;;;;;;5089363;27;20055;-74
2022/05/02 05:43:49;;;;;;;3.35;3.00;;;14.80;60.80;;;;;;5091200;28;20051;-74
2022/05/02 05:46:46;;;;;;;3.35;2.97;;;14.80;60.90;;;;;;5095974;28;20044;-74
2022/05/02 05:49:23;;;;;;;3.15;2.80;;;14.80;60.90;;;;;;5085822;27;20048;-74
2022/05/02 05:52:11;;;;;;;3.40;3.10;;;14.80;61.00;;;;;;5086620;28;20048;-74
2022/05/02 05:54:48;;;;;;;3.35;3.00;;;14.80;61.00;;;;;;5097213;28;20046;-74
2022/05/02 05:57:32;;;;;;;4.30;3.17;;;14.80;61.00;;;;;;5092609;28;20052;-73
2022/05/02 06:00:05;;;;;;;3.38;3.05;;;14.80;61.00;;;;;;5089147;28;20517;-73
2022/05/02 06:03:02;;;;;;;3.55;2.70;;;14.80;61.00;;;;;;5094956;27;20059;-75
2022/05/02 06:05:49;;;;;;;4.50;2.70;;;14.80;61.00;;;;;;5089939;27;20051;-74
2022/05/02 06:08:20;;;;;;;3.63;3.00;;;14.90;61.10;;;;;;5093524;28;20079;-75
2022/05/02 06:10:59;;;;;;;3.67;3.17;;;14.80;61.00;;;;;;5091819;27;20531;-74
2022/05/02 06:13:32;;;;;;;3.63;2.90;;;14.80;61.00;;;;;;5097643;28;20122;-73
2022/05/02 06:19:01;;;;;;;3.60;3.10;;;14.80;61.00;;;;;;5067023;27;20133;-74
2022/05/02 06:21:46;;;;;;;4.32;3.42;;;14.80;61.10;;;;;;5088088;27;20485;-73
2022/05/02 06:24:15;;;;;;;3.72;3.15;;;14.80;61.10;;;;;;5095473;28;20055;-73
2022/05/02 06:26:49;;;;;;;3.00;2.70;;;14.80;61.10;;;;;;5093807;27;20487;-73
2022/05/02 06:29:23;;;;;;;4.40;3.20;;;14.80;61.10;;;;;;5091974;28;20051;-74
2022/05/02 06:32:07;;;;;;;3.35;3.00;;;14.80;61.10;;;;;;5091246;28;20048;-74
2022/05/02 06:34:52;;;;;;;3.63;2.95;;;14.90;61.20;;;;;;5088215;28;20051;-75
2022/05/02 06:37:37;;;;;;;5.05;2.80;;;15.00;61.40;;;;;;5086739;28;20147;-75
2022/05/02 06:40:05;;;;;;;;;;;14.80;61.20;;;;;;5084692;28;20049;-74
2022/05/02 06:42:40;;;;;;;3.67;3.08;;;14.80;61.20;;;;;;5083555;28;19919;-74
2022/05/02 06:45:31;;;;;;;3.13;2.70;;;14.80;61.10;;;;;;5121032;27;20129;-74
2022/05/02 06:48:27;;;;;;;3.05;2.72;;;14.80;61.20;;;;;;5091125;27;20627;-74
2022/05/02 06:51:14;;;;;;;3.15;2.63;;;14.90;61.20;;;;;;5086849;28;20040;-74
2022/05/02 06:54:08;;;;;;;3.10;2.60;;;14.80;61.20;;;;;;5090183;27;20067;-74
2022/05/02 06:56:43;;;;;;;2.55;2.35;;;14.90;61.40;;;;;;5087380;28;20122;-73
2022/05/02 06:59:27;;;;;;;2.75;2.40;;;14.90;61.20;;;;;;5085427;28;20136;-73
2022/05/02 07:02:20;;;;;;;2.67;2.28;;;14.90;61.30;;;;;;5088827;27;20581;-74
2022/05/02 07:04:51;;;;;;;2.90;2.60;;;14.90;61.30;;;;;;5093926;28;20031;-75
2022/05/02 07:07:43;;;;;;;3.75;2.90;;;14.90;61.30;;;;;;5096180;28;20032;-73
2022/05/02 07:10:21;;;;;;;3.40;2.90;;;14.90;61.40;;;;;;5094977;28;20040;-74
2022/05/02 07:12:59;;;;;;;3.10;2.60;;;14.90;61.40;;;;;;5085772;28;20051;-74
2022/05/02 07:15:40;;;;;;;3.25;2.80;;;14.90;61.40;;;;;;5083654;28;20040;-74
2022/05/02 07:18:45;;;;;;;3.50;2.80;;;14.90;61.40;;;;;;5092178;28;20733;-73
2022/05/02 07:21:30;;;;;;;3.83;2.80;;;14.90;61.50;;;;;;5096656;28;20053;-74
2022/05/02 07:24:16;;;;;;;2.67;2.47;;;14.90;61.50;;;;;;5091272;27;20055;-73
2022/05/02 07:26:57;;;;;;;3.08;2.60;;;14.90;61.40;;;;;;5092304;28;20841;-73
2022/05/02 07:29:26;;;;;;;3.35;2.70;;;14.90;61.40;;;;;;5095851;28;20054;-74
2022/05/02 07:31:56;;;;;;;2.85;2.58;;;14.90;61.50;;;;;;5086880;28;20084;-74
2022/05/02 07:34:25;;;;;;;3.70;2.72;;;15.00;61.50;;;;;;5095089;28;20035;-73
2022/05/02 07:36:56;;;;;;;5.18;3.00;;;15.00;61.60;;;;;;5084077;28;20040;-75
2022/05/02 07:39:24;;;;;;;3.97;2.80;;;15.00;61.60;;;;;;5091712;28;20490;-74
2022/05/02 07:42:09;;;;;;;3.42;2.67;;;15.00;61.60;;;;;;5086662;28;20075;-73
2022/05/02 07:44:38;;;;;;;2.60;2.40;;;15.00;61.60;;;;;;5089444;28;20522;-74
2022/05/02 07:47:11;;;;;;;2.88;2.40;;;15.00;61.60;;;;;;5085406;28;20050;-72
2022/05/02 07:49:55;;;;;;;2.55;2.33;;;15.00;61.50;;;;;;5091626;28;20047;-74
2022/05/02 07:52:26;;;;;;;3.60;2.58;;;15.00;61.60;;;;;;5092599;28;20122;-73
2022/05/02 07:54:56;;;;;;;3.33;2.22;;;15.00;61.60;;;;;;5096564;28;20048;-74
2022/05/02 07:57:25;;;;;;;2.72;2.30;;;15.00;61.50;;;;;;5083647;28;20066;-74
2022/05/02 07:59:55;;;;;;;3.85;2.70;;;15.00;61.60;;;;;;5091625;28;20487;-74
2022/05/02 08:02:23;;;;;;;3.15;2.30;;;15.00;61.60;;;;;;5086531;28;20036;-73
2022/05/02 08:04:52;;;;;;;2.85;2.38;;;15.00;61.50;;;;;;5094487;28;20048;-73
2022/05/02 08:07:30;;;;;;;2.83;2.35;;;15.00;61.60;;;;;;5086504;28;20040;-73
2022/05/02 08:10:24;;;;;;;2.78;2.40;;;15.00;61.60;;;;;;5093336;28;20093;-73
2022/05/02 08:12:55;;;;;;;4.95;2.50;;;15.00;61.60;;;;;;5084080;28;20048;-74
2022/05/02 08:15:50;;;;;;;2.85;2.13;;;15.10;61.70;;;;;;5085376;28;20058;-74
2022/05/02 08:18:44;;;;;;;4.15;2.60;;;15.10;61.70;;;;;;5084784;27;20152;-73
2022/05/02 08:21:17;;;;;;;3.13;2.30;;;15.10;61.70;;;;;;5091595;28;20043;-74
2022/05/02 08:27:17;;;;;;;2.90;2.28;;;15.10;61.70;;;;;;5087951;28;20043;-74
2022/05/02 08:30:05;;;;;;;3.15;2.20;;;15.10;61.70;;;;;;5081236;28;20051;-74
2022/05/02 08:32:56;;;;;;;2.63;2.20;;;15.10;61.70;;;;;;5093976;28;20136;-74
2022/05/02 08:35:33;;;;;;;2.47;2.10;;;15.10;61.70;;;;;;5089767;28;20450;-74
2022/05/02 08:38:41;;;;;;;3.20;2.35;;;15.10;61.80;;;;;;5085036;28;20032;-73
2022/05/02 08:41:55;;;;;;;2.30;2.10;;;15.20;61.80;;;;;;5024800;28;20052;-73
2022/05/02 08:44:52;;;;;;;2.65;2.00;;;15.20;61.80;;;;;;5021056;28;20045;-73
2022/05/02 08:48:11;;;;;;;3.05;2.10;;;15.20;61.90;;;;;;5080888;28;20044;-73
2022/05/02 08:51:12;;;;;;;2.55;2.03;;;15.20;61.80;;;;;;5095660;28;20129;-73
2022/05/02 08:54:11;;;;;;;3.03;2.10;;;15.20;61.90;;;;;;5093053;28;20046;-74
2022/05/02 08:57:18;;;;;;;2.95;2.00;;;15.20;61.70;;;;;;5083700;28;20109;-74
2022/05/02 09:00:07;;;;;;;2.70;1.80;;;15.20;61.80;;;;;;5089160;28;20068;-73
2022/05/02 09:03:41;;;;;;;2.83;1.95;;;15.20;61.80;;;;;;5086258;28;20058;-75
2022/05/02 09:06:39;;;;;;;4.00;1.90;;;15.20;61.70;;;;;;5054135;28;20036;-74
2022/05/02 09:09:23;;;;;;;3.05;1.90;;;15.30;61.90;;;;;;5064612;28;20050;-74
2022/05/02 09:12:29;;;;;;;2.35;2.00;;;15.30;61.80;;;;;;5084116;28;20071;-73
2022/05/02 09:15:18;;;;;;;2.40;1.80;;;15.30;61.80;;;;;;5091119;28;20039;-74
2022/05/02 09:18:37;;;;;;;2.90;2.00;;;15.30;61.80;;;;;;5094072;28;20042;-74
2022/05/02 09:21:28;;;;;;;3.38;1.77;;;15.30;61.60;;;;;;5048959;28;20048;-73
2022/05/02 09:24:34;;;;;;;2.95;2.03;;;15.30;61.60;;;;;;5085265;28;20063;-73
2022/05/02 09:27:22;;;;;;;2.70;2.00;;;15.30;61.60;;;;;;5081360;28;20044;-74
2022/05/02 09:30:24;;;;;;;2.10;1.70;;;15.30;61.60;;;;;;5083907;28;20151;-75
2022/05/02 09:33:32;;;;;;;2.13;1.70;;;15.40;61.70;;;;;;5084004;28;20047;-73
2022/05/02 09:36:26;;;;;;;2.42;1.80;;;15.40;61.70;;;;;;5090151;27;20718;-74
2022/05/02 09:38:59;;;;;;;2.60;2.00;;;15.40;61.70;;;;;;5092631;28;20055;-74
2022/05/02 09:41:52;;;;;;;2.78;1.70;;;15.40;61.60;;;;;;5092170;28;20043;-74
2022/05/02 09:50:49;;;;;;;2.30;1.80;;;15.40;61.60;;;;;;5089375;27;20047;-73
2022/05/02 09:53:35;;;;;;;2.17;1.80;;;15.40;61.50;;;;;;5090371;28;20059;-74
2022/05/02 09:58:57;;;;;;;2.25;1.60;;;15.50;61.50;;;;;;5088534;28;20044;-73
2022/05/02 10:01:31;;;;;;;1.98;1.60;;;15.50;61.60;;;;;;5090867;28;20032;-74
2022/05/02 10:04:30;;;;;;;2.38;1.80;;;15.50;61.50;;;;;;5089030;28;20072;-75
2022/05/02 10:07:07;;;;;;;2.08;1.77;;;15.50;61.50;;;;;;5088438;27;20035;-74
2022/05/02 10:10:05;;;;;;;2.33;1.60;;;15.50;61.60;;;;;;5096897;28;20067;-74
2022/05/02 10:12:54;;;;;;;2.10;1.50;;;15.50;61.60;;;;;;5087449;28;20040;-74
2022/05/02 10:15:53;;;;;;;1.95;1.50;;;15.60;61.60;;;;;;5089465;28;20044;-75
2022/05/02 10:18:52;;;;;;;2.30;1.67;;;15.50;61.50;;;;;;5093704;28;20504;-74
2022/05/02 10:21:36;;;;;;;2.33;1.50;;;15.50;61.40;;;;;;5092451;28;20044;-73
2022/05/02 10:24:26;;;;;;;2.38;1.60;;;15.50;61.50;;;;;;5090008;28;20055;-74
2022/05/02 10:27:27;;;;;;;2.72;1.60;;;15.50;61.40;;;;;;5090377;28;20047;-75
2022/05/02 10:30:05;;;;;;;2.22;1.80;;;15.50;62.30;;;;;;5090551;27;20047;-73
2022/05/02 10:32:43;;;;;;;2.50;1.60;;;15.60;61.50;;;;;;5084307;28;20552;-74
2022/05/02 10:35:13;;;;;;;2.60;1.58;;;15.50;61.40;;;;;;5092314;28;20043;-74
2022/05/02 10:37:42;;;;;;;2.25;1.50;;;15.60;61.50;;;;;;5085381;28;20135;-75
2022/05/02 10:40:13;;;;;;;2.15;1.50;;;15.60;61.60;;;;;;5114024;27;20070;-75
2022/05/02 10:42:51;;;;;;;2.50;1.50;;;15.60;61.50;;;;;;5088198;28;20123;-74
2022/05/02 10:45:18;;;;;;;2.40;1.70;;;15.60;61.50;;;;;;5093159;27;20110;-74
2022/05/02 10:48:06;;;;;;;5.20;1.70;;;15.60;61.50;;;;;;5088582;28;20039;-74
2022/05/02 10:50:41;;;;;;;2.30;1.80;;;15.70;61.60;;;;;;5090111;28;20036;-73
2022/05/02 10:53:35;;;;;;;2.22;1.70;;;15.60;61.50;;;;;;5092775;28;20054;-73
2022/05/02 10:56:20;;;;;;;2.58;1.80;;;15.60;61.50;;;;;;5096521;28;20047;-74
2022/05/02 10:58:54;;;;;;;2.25;1.55;;;15.60;61.50;;;;;;5085487;28;20410;-74
2022/05/02 11:01:57;;;;;;;2.42;1.65;;;15.60;61.50;;;;;;5092257;27;20123;-74
2022/05/02 11:05:04;;;;;;;3.13;1.77;;;15.60;61.40;;;;;;5087079;28;20054;-75
2022/05/02 11:07:53;;;;;;;2.75;1.80;;;15.60;61.30;;;;;;5092245;28;20502;-74
2022/05/02 11:10:22;;;;;;;1.97;1.70;;;15.60;61.30;;;;;;5083947;28;20039;-75
2022/05/02 11:13:12;;;;;;;2.03;1.65;;;15.60;61.40;;;;;;5084805;28;20040;-74
2022/05/02 11:15:59;;;;;;;2.00;1.70;;;15.60;61.30;;;;;;5083601;28;20296;-75
2022/05/02 11:22:02;;;;;;;3.17;1.80;;;15.60;61.30;;;;;;5082122;28;20048;-74
2022/05/02 11:24:57;;;;;;;2.53;1.90;;;15.60;61.30;;;;;;5088833;28;20054;-74
2022/05/02 11:27:49;;;;;;;4.65;2.00;;;15.60;61.30;;;;;;5093201;28;20044;-74
2022/05/02 11:30:22;;;;;;;2.20;1.73;;;15.60;61.30;;;;;;5083680;28;20437;-74
2022/05/02 11:33:07;;;;;;;2.42;1.80;;;15.70;61.40;;;;;;5086172;28;20044;-75
2022/05/02 11:35:35;;;;;;;2.20;1.90;;;15.60;61.30;;;;;;5085289;28;20126;-75
2022/05/02 11:38:12;;;;;;;2.20;1.60;;;15.70;61.30;;;;;;5085753;27;20068;-75
2022/05/02 11:40:44;;;;;;;1.95;1.60;;;15.70;61.30;;;;;;5087493;28;20071;-74
2022/05/02 11:43:15;;;;;;;2.92;1.58;;;15.70;61.30;;;;;;5095692;28;20036;-73
2022/05/02 11:46:14;;;;;;;1.92;1.60;;;15.70;61.30;;;;;;5087758;28;20058;-75
2022/05/02 11:49:02;;;;;;;2.47;1.50;;;15.60;61.20;;;;;;5095066;28;20142;-75
2022/05/02 11:51:43;;;;;;;2.30;1.70;;;15.70;61.30;;;;;;5093685;28;20047;-74
2022/05/02 11:54:34;;;;;;;2.38;1.63;;;15.70;61.30;;;;;;5086103;27;20044;-74
2022/05/02 11:57:22;;;;;;;2.90;1.70;;;15.70;61.30;;;;;;5087276;28;20048;-73
2022/05/02 11:59:59;;;;;;;1.92;1.60;;;15.70;61.30;;;;;;5087435;28;20042;-74
2022/05/02 12:02:51;;;;;;;3.67;1.80;;;15.70;61.30;;;;;;5083019;28;20075;-74
2022/05/02 12:05:27;;;;;;;1.90;1.67;;;15.60;61.10;;;;;;5084810;27;20117;-75
2022/05/02 12:07:56;;;;;;;2.25;1.77;;;15.70;61.10;;;;;;5085871;27;20047;-75
2022/05/02 12:10:45;;;;;;;2.78;1.73;;;15.70;61.10;;;;;;5090587;28;20149;-75
2022/05/02 12:13:16;;;;;;;2.72;1.75;;;15.70;61.20;;;;;;5086157;28;20040;-75
2022/05/02 12:15:58;;;;;;;1.90;1.50;;;15.70;61.10;;;;;;5089704;28;20124;-75
2022/05/02 12:18:38;;;;;;;2.75;1.60;;;15.70;61.20;;;;;;5087968;28;20059;-76
2022/05/02 12:21:07;;;;;;;3.00;1.58;;;15.80;61.20;;;;;;5101329;28;20095;-76
2022/05/02 12:23:49;;;;;;;1.85;1.58;;;15.70;61.10;;;;;;5100635;27;20059;-75
2022/05/02 12:26:19;;;;;;;2.53;1.70;;;15.70;61.20;;;;;;5090580;28;20102;-75
2022/05/02 12:28:49;;;;;;;2.67;1.77;;;15.70;61.10;;;;;;5090510;28;20074;-76
2022/05/02 12:31:17;;;;;;;2.30;1.67;;;15.70;61.00;;;;;;5091574;28;20365;-74
2022/05/02 12:33:50;;;;;;;2.97;2.00;;;15.70;61.00;;;;;;5095928;28;20062;-74
2022/05/02 12:36:20;;;;;;;2.33;1.75;;;15.70;61.00;;;;;;5085904;28;20095;-74
2022/05/02 12:38:59;;;;;;;2.58;1.67;;;15.70;61.00;;;;;;5082604;28;20522;-74
2022/05/02 12:41:30;;;;;;;2.33;1.75;;;15.70;61.10;;;;;;5091709;28;20047;-74
2022/05/02 12:44:13;;;;;;;2.72;1.63;;;15.70;61.00;;;;;;5088719;28;20042;-74
2022/05/02 12:47:05;;;;;;;2.47;1.70;;;15.70;61.00;;;;;;5093173;28;20040;-74
2022/05/02 12:49:53;;;;;;;2.38;1.83;;;15.70;61.00;;;;;;5087144;28;20688;-74
2022/05/02 12:52:28;;;;;;;2.17;1.70;;;15.70;61.00;;;;;;5089074;28;20048;-74
2022/05/02 12:55:12;;;;;;;1.90;1.67;;;15.70;61.00;;;;;;5091998;28;20040;-75
2022/05/02 13:00:52;;;;;;;2.53;1.50;;;15.70;61.00;;;;;;5086403;28;20052;-75
2022/05/02 13:03:27;;;;;;;2.53;1.67;;;15.70;60.90;;;;;;5091938;28;20044;-74
2022/05/02 13:05:58;;;;;;;2.42;1.60;;;15.70;61.00;;;;;;5123693;27;20391;-76
2022/05/02 13:08:45;;;;;;;2.80;1.70;;;15.70;61.00;;;;;;5094726;28;20124;-75
2022/05/02 13:11:15;;;;;;;3.33;1.90;;;15.70;61.00;;;;;;5088685;28;20126;-76
2022/05/02 13:13:47;;;;;;;1.95;1.58;;;15.70;60.90;;;;;;5119770;27;20071;-75
2022/05/02 13:16:17;;;;;;;2.58;1.92;;;15.70;60.90;;;;;;5083054;27;20085;-72
2022/05/02 13:18:53;;;;;;;2.80;1.90;;;15.70;60.90;;;;;;5088773;27;20085;-76
2022/05/02 13:21:22;;;;;;;2.45;1.52;;;15.70;60.90;;;;;;5097995;27;20499;-74
2022/05/02 13:24:07;;;;;;;2.88;1.63;;;15.70;60.90;;;;;;5099912;27;20124;-73
2022/05/02 13:27:02;;;;;;;1.80;1.40;;;15.70;60.90;;;;;;5086126;28;20173;-75
2022/05/02 13:29:43;;;;;;;1.95;1.40;;;15.70;60.90;;;;;;5091045;28;20063;-75
2022/05/02 13:32:16;;;;;;;2.88;1.80;;;15.70;60.90;;;;;;5091943;28;20105;-72
2022/05/02 13:35:06;;;;;;;2.50;1.65;;;15.70;60.80;;;;;;5090534;27;20093;-75
2022/05/02 13:38:08;;;;;;;2.38;1.90;;;15.70;60.80;;;;;;5092613;27;20550;-72
2022/05/02 13:41:05;;;;;;;2.63;1.80;;;15.80;61.40;;;;;;5098232;28;20517;-74
2022/05/02 13:44:03;;;;;;;2.72;1.70;;;15.80;60.90;;;;;;5087833;28;20054;-73
2022/05/02 13:46:43;;;;;;;3.13;2.10;;;15.70;60.80;;;;;;5089665;28;20051;-73
2022/05/02 13:49:19;;;;;;;3.65;2.10;;;15.70;60.80;;;;;;5085641;27;20047;-73
2022/05/02 13:52:02;;;;;;;2.97;1.80;;;15.70;60.70;;;;;;5083085;27;20051;-73
2022/05/02 13:54:49;;;;;;;2.30;1.88;;;15.70;60.70;;;;;;5090812;28;20043;-74
2022/05/02 13:57:35;;;;;;;2.72;2.00;;;15.70;60.60;;;;;;5086861;28;20059;-73
2022/05/02 14:03:30;;;;;;;2.05;1.60;;;15.80;60.80;;;;;;5088852;27;20051;-73
2022/05/02 14:06:00;;;;;;;2.55;2.00;;;15.70;60.60;;;;;;5091538;28;20044;-74
2022/05/02 14:08:42;;;;;;;2.30;1.67;;;15.80;60.70;;;;;;5091524;27;20067;-75
2022/05/02 14:11:13;;;;;;;2.10;1.75;;;15.80;60.80;;;;;;5096767;28;20071;-73
2022/05/02 14:13:41;;;;;;;2.28;1.70;;;15.80;60.80;;;;;;5093775;27;20050;-73
2022/05/02 14:16:15;;;;;;;2.35;1.75;;;15.70;60.70;;;;;;5093345;27;20040;-74
2022/05/02 14:18:50;;;;;;;3.15;1.67;;;15.80;60.80;;;;;;5085070;28;20089;-73
2022/05/02 14:21:22;;;;;;;2.55;1.80;;;15.70;60.70;;;;;;5085114;27;20048;-74